createdAt,value
2023-05-05T00:00:38.945Z,101467.53
2023-05-05T00:03:43.325Z,101466.34
2023-05-05T00:06:46.229Z,101440.16
2023-05-05T00:09:48.933Z,101438.56
2023-05-05T00:12:51.466Z,101413.59
2023-05-05T00:15:54.362Z,101402.31
2023-05-05T00:18:58.282Z,101406.34
2023-05-05T00:22:00.817Z,101391.81
2023-05-05T00:25:04.827Z,101395.06
2023-05-05T00:28:07.354Z,101389.44
2023-05-05T00:31:09.875Z,101376.97
2023-05-05T00:34:13.802Z,101364.50
2023-05-05T00:37:16.589Z,101370.91
2023-05-05T00:40:19.329Z,101378.16
2023-05-05T00:43:21.910Z,101388.53
2023-05-05T00:46:25.659Z,101396.53
2023-05-05T00:49:29.564Z,101396.09
2023-05-05T00:52:32.266Z,101399.28
2023-05-05T00:55:35.315Z,101411.63
2023-05-05T00:58:37.904Z,101411.50
2023-05-05T01:01:40.562Z,101411.41
2023-05-05T01:04:44.540Z,101414.59
2023-05-05T01:07:53.884Z,101410.16
2023-05-05T01:11:00.484Z,101409.72
2023-05-05T01:14:06.924Z,101416.88
2023-05-05T01:17:14.690Z,101425.59
2023-05-05T01:20:22.027Z,101422.31
2023-05-05T01:23:38.239Z,101425.47
2023-05-05T01:26:53.799Z,101426.28
2023-05-05T01:30:04.222Z,101427.91
2023-05-05T01:33:10.222Z,101437.53
2023-05-05T01:36:14.313Z,101439.91
2023-05-05T01:39:17.084Z,101438.28
2023-05-05T01:42:19.601Z,101439.84
2023-05-05T01:45:25.744Z,101451.03
2023-05-05T01:48:29.913Z,101442.09
2023-05-05T01:51:32.913Z,101442.44
2023-05-05T01:54:35.425Z,101442.75
2023-05-05T01:57:38.049Z,101447.97
2023-05-05T02:00:40.578Z,101442.63
2023-05-05T02:03:44.477Z,101444.56
2023-05-05T02:06:47.530Z,101448.91
2023-05-05T02:09:50.143Z,101444.84
2023-05-05T02:12:52.797Z,101440.75
2023-05-05T02:15:55.419Z,101442.31
2023-05-05T02:18:59.550Z,101446.25
2023-05-05T02:22:02.126Z,101446.13
2023-05-05T02:25:05.171Z,101451.69
2023-05-05T02:28:09.187Z,101460.72
2023-05-05T02:31:11.752Z,101467.81
2023-05-05T02:34:17.196Z,101466.38
2023-05-05T02:37:24.054Z,101462.28
2023-05-05T02:40:27.555Z,101463.03
2023-05-05T02:43:30.429Z,101463.78
2023-05-05T02:46:33.043Z,101464.09
2023-05-05T02:49:37.374Z,101458.03
2023-05-05T02:52:40.006Z,101464.03
2023-05-05T02:55:45.186Z,101482.88
2023-05-05T02:58:53.183Z,101481.97
2023-05-05T03:02:00.789Z,101483.47
2023-05-05T03:05:07.635Z,101477.00
2023-05-05T03:08:11.712Z,101475.38
2023-05-05T03:11:17.045Z,101474.50
2023-05-05T03:14:21.080Z,101474.41
2023-05-05T03:17:23.678Z,101463.13
2023-05-05T03:20:27.571Z,101454.25
2023-05-05T03:23:30.170Z,101452.63
2023-05-05T03:26:32.734Z,101451.00
2023-05-05T03:29:35.356Z,101454.94
2023-05-05T03:32:38.045Z,101466.09
2023-05-05T03:35:41.985Z,101462.84
2023-05-05T03:38:44.501Z,101468.41
2023-05-05T03:41:47.002Z,101469.94
2023-05-05T03:44:49.559Z,101463.50
2023-05-05T03:47:52.218Z,101465.50
2023-05-05T03:50:56.376Z,101477.84
2023-05-05T03:53:58.934Z,101476.16
2023-05-05T03:57:02.341Z,101478.44
2023-05-05T04:00:05.936Z,101492.47
2023-05-05T04:03:08.825Z,101494.00
2023-05-05T04:06:12.831Z,101499.09
2023-05-05T04:09:15.519Z,101495.78
2023-05-05T04:12:18.091Z,101498.59
2023-05-05T04:15:20.678Z,101494.09
2023-05-05T04:18:23.428Z,101498.88
2023-05-05T04:21:27.359Z,101504.50
2023-05-05T04:24:29.900Z,101502.88
2023-05-05T04:27:32.460Z,101508.91
2023-05-05T04:30:35.059Z,101510.91
2023-05-05T04:33:37.613Z,101510.09
2023-05-05T04:36:41.523Z,101508.47
2023-05-05T04:39:44.034Z,101510.53
2023-05-05T04:42:46.521Z,101512.25
2023-05-05T04:45:55.309Z,101509.66
2023-05-05T04:48:59.572Z,101511.44
2023-05-05T04:52:03.633Z,101514.16
2023-05-05T04:55:07.206Z,101505.69
2023-05-05T04:58:09.742Z,101510.81
2023-05-05T05:01:12.313Z,101517.44
2023-05-05T05:04:18.336Z,101505.56
2023-05-05T05:07:22.271Z,101514.88
2023-05-05T05:10:24.844Z,101521.59
2023-05-05T05:13:27.389Z,101528.94
2023-05-05T05:16:30.091Z,101532.53
2023-05-05T05:19:32.656Z,101534.63
2023-05-05T05:22:38.297Z,101541.22
2023-05-05T05:25:40.864Z,101542.53
2023-05-05T05:28:43.423Z,101542.41
2023-05-05T05:31:45.969Z,101536.72
2023-05-05T05:34:48.533Z,101543.97
2023-05-05T05:37:52.743Z,101528.00
2023-05-05T05:40:55.350Z,101531.31
2023-05-05T05:43:57.962Z,101533.78
2023-05-05T05:47:00.506Z,101543.56
2023-05-05T05:50:04.745Z,101544.88
2023-05-05T05:53:08.657Z,101569.56
2023-05-05T05:56:11.283Z,101578.84
2023-05-05T05:59:13.822Z,101565.75
2023-05-05T06:02:16.384Z,101574.69
2023-05-05T06:05:19.066Z,101571.50
2023-05-05T06:08:24.982Z,101577.97
2023-05-05T06:11:27.702Z,101582.88
2023-05-05T06:14:30.246Z,101575.66
2023-05-05T06:17:32.776Z,101586.25
2023-05-05T06:20:35.349Z,101592.41
2023-05-05T06:23:39.281Z,101590.56
2023-05-05T06:26:42.745Z,101590.81
2023-05-05T06:29:45.265Z,101596.59
2023-05-05T06:32:47.887Z,101589.47
2023-05-05T06:35:52.243Z,101590.00
2023-05-05T06:38:56.125Z,101584.06
2023-05-05T06:41:58.683Z,101595.34
2023-05-05T06:45:01.417Z,101599.34
2023-05-05T06:48:04.012Z,101612.59
2023-05-05T06:51:06.620Z,101607.31
2023-05-05T06:54:10.693Z,101615.31
2023-05-05T06:57:13.192Z,101605.28
2023-05-05T07:00:17.371Z,101603.31
2023-05-05T07:03:19.984Z,101594.44
2023-05-05T07:06:22.797Z,101593.69
2023-05-05T07:09:26.703Z,101593.31
2023-05-05T07:12:30.133Z,101585.75
2023-05-05T07:15:32.740Z,101596.38
2023-05-05T07:18:35.344Z,101600.50
2023-05-05T07:21:39.556Z,101604.66
2023-05-05T07:24:43.465Z,101613.63
2023-05-05T07:27:46.004Z,101613.72
2023-05-05T07:30:48.567Z,101600.06
2023-05-05T07:33:51.076Z,101599.72
2023-05-05T07:36:56.221Z,101592.88
2023-05-05T07:40:00.069Z,101601.75
2023-05-05T07:43:02.600Z,101609.34
2023-05-05T07:46:05.183Z,101621.41
2023-05-05T07:49:07.769Z,101626.59
2023-05-05T07:52:10.331Z,101621.00
2023-05-05T07:55:14.261Z,101615.00
2023-05-05T07:58:17.020Z,101614.63
2023-05-05T08:01:20.126Z,101616.63
2023-05-05T08:04:22.791Z,101617.44
2023-05-05T08:07:25.477Z,101635.59
2023-05-05T08:10:29.340Z,101629.59
2023-05-05T08:13:31.914Z,101637.19
2023-05-05T08:16:34.785Z,101646.91
2023-05-05T08:19:37.334Z,101635.75
2023-05-05T08:22:39.915Z,101638.22
2023-05-05T08:25:44.387Z,101653.09
2023-05-05T08:28:48.558Z,101659.13
2023-05-05T08:31:51.084Z,101655.91
2023-05-05T08:34:53.739Z,101661.81
2023-05-05T08:37:58.787Z,101659.69
2023-05-05T08:41:03.888Z,101651.13
2023-05-05T08:44:06.539Z,101643.84
2023-05-05T08:47:09.290Z,101635.34
2023-05-05T08:50:12.518Z,101643.41
2023-05-05T08:53:17.367Z,101644.25
2023-05-05T08:56:21.817Z,101647.41
2023-05-05T08:59:25.142Z,101656.94
2023-05-05T09:02:29.720Z,101663.97
2023-05-05T09:05:32.284Z,101662.94
2023-05-05T09:08:34.849Z,101664.44
2023-05-05T09:11:38.798Z,101666.09
2023-05-05T09:14:41.370Z,101656.44
2023-05-05T09:17:44.062Z,101662.09
2023-05-05T09:20:46.852Z,101660.44
2023-05-05T09:24:08.089Z,101663.72
2023-05-05T09:27:22.320Z,101658.03
2023-05-05T09:30:25.872Z,101670.06
2023-05-05T09:33:31.959Z,101670.84
2023-05-05T09:36:44.772Z,101676.41
2023-05-05T09:39:54.361Z,101679.63
2023-05-05T09:43:03.017Z,101678.09
2023-05-05T09:46:08.865Z,101681.78
2023-05-05T09:49:15.436Z,101678.22
2023-05-05T09:52:18.006Z,101672.19
2023-05-05T09:55:20.605Z,101676.63
2023-05-05T09:58:24.967Z,101673.44
2023-05-05T10:01:27.593Z,101671.06
2023-05-05T10:04:31.027Z,101666.19
2023-05-05T10:07:33.699Z,101662.19
2023-05-05T10:10:36.236Z,101657.41
2023-05-05T10:13:41.800Z,101653.53
2023-05-05T10:16:48.226Z,101656.47
2023-05-05T10:19:51.088Z,101658.56
2023-05-05T10:22:53.746Z,101663.88
2023-05-05T10:26:01.660Z,101659.53
2023-05-05T10:29:05.722Z,101659.22
2023-05-05T10:32:40.787Z,101659.22
2023-05-05T10:35:36.471Z,101641.91
2023-05-05T10:38:38.966Z,101664.06
2023-05-05T10:41:41.596Z,101655.22
2023-05-05T10:44:45.485Z,101653.97
2023-05-05T10:47:48.128Z,101655.63
2023-05-05T10:50:52.496Z,101654.44
2023-05-05T10:53:57.910Z,101659.59
2023-05-05T10:57:02.561Z,101649.03
2023-05-05T11:00:08.533Z,101653.81
2023-05-05T11:03:21.733Z,101647.56
2023-05-05T11:06:24.319Z,101645.31
2023-05-05T11:09:29.957Z,101640.34
2023-05-05T11:12:32.945Z,101635.34
2023-05-05T11:15:40.411Z,101630.81
2023-05-05T11:18:44.431Z,101624.66
2023-05-05T11:22:00.662Z,101623.41
2023-05-05T11:25:20.657Z,101632.56
2023-05-05T11:28:25.446Z,101629.94
2023-05-05T11:31:30.513Z,101617.31
2023-05-05T11:34:33.232Z,101627.84
2023-05-05T11:37:35.745Z,101634.59
2023-05-05T11:40:38.298Z,101630.78
2023-05-05T11:43:41.217Z,101640.25
2023-05-05T11:47:29.079Z,101636.34
2023-05-05T11:50:33.179Z,101635.97
2023-05-05T11:53:35.734Z,101638.47
2023-05-05T11:56:38.284Z,101641.13
2023-05-05T11:59:50.619Z,101632.19
2023-05-05T12:02:58.850Z,101634.31
2023-05-05T12:06:01.479Z,101636.47
2023-05-05T12:09:04.964Z,101636.78
2023-05-05T12:12:08.028Z,101631.16
2023-05-05T12:15:11.789Z,101638.13
2023-05-05T12:18:20.569Z,101644.78
2023-05-05T12:21:23.228Z,101636.97
2023-05-05T12:24:25.740Z,101646.00
2023-05-05T12:27:28.939Z,101652.34
2023-05-05T12:30:31.583Z,101640.31
2023-05-05T12:33:40.609Z,101629.31
2023-05-05T12:36:43.209Z,101647.34
2023-05-05T12:39:46.056Z,101647.44
2023-05-05T12:42:49.112Z,101647.16
2023-05-05T12:46:00.454Z,101663.38
2023-05-05T12:49:05.561Z,101658.22
2023-05-05T12:52:09.854Z,101666.56
2023-05-05T12:55:12.638Z,101659.91
2023-05-05T12:58:15.200Z,101667.00
2023-05-05T13:01:17.766Z,101667.63
2023-05-05T13:04:22.788Z,101670.72
2023-05-05T13:07:25.369Z,101668.09
2023-05-05T13:10:28.176Z,101668.09
2023-05-05T13:13:32.979Z,101665.66
2023-05-05T13:16:35.925Z,101661.50
2023-05-05T13:19:45.813Z,101655.72
2023-05-05T13:22:48.336Z,101654.78
2023-05-05T13:25:50.921Z,101642.69
2023-05-05T13:28:53.476Z,101645.94
2023-05-05T13:31:55.997Z,101641.25
2023-05-05T13:34:59.882Z,101634.94
2023-05-05T13:38:02.436Z,101632.19
2023-05-05T13:41:05.010Z,101628.75
2023-05-05T13:44:07.573Z,101630.47
2023-05-05T13:47:10.171Z,101632.19
2023-05-05T13:50:14.124Z,101631.47
2023-05-05T13:53:16.755Z,101638.13
2023-05-05T13:56:19.468Z,101638.88
2023-05-05T13:59:22.060Z,101633.63
2023-05-05T14:02:24.850Z,101629.41
2023-05-05T14:05:28.884Z,101638.13
2023-05-05T14:08:31.451Z,101637.47
2023-05-05T14:11:34.008Z,101630.41
2023-05-05T14:14:37.055Z,101632.03
2023-05-05T14:17:39.673Z,101637.25
2023-05-05T14:20:43.651Z,101636.88
2023-05-05T14:23:46.197Z,101631.63
2023-05-05T14:26:49.143Z,101632.09
2023-05-05T14:29:51.702Z,101626.06
2023-05-05T14:32:54.292Z,101627.97
2023-05-05T14:35:58.175Z,101625.63
2023-05-05T14:39:00.752Z,101624.88
2023-05-05T14:42:03.345Z,101629.81
2023-05-05T14:45:07.119Z,101631.53
2023-05-05T14:48:09.966Z,101619.78
2023-05-05T14:51:14.666Z,101611.22
2023-05-05T14:54:27.323Z,101622.28
2023-05-05T14:57:31.425Z,101624.41
2023-05-05T15:00:33.986Z,101619.66
2023-05-05T15:03:36.686Z,101614.03
2023-05-05T15:06:40.600Z,101621.41
2023-05-05T15:09:43.181Z,101616.41
2023-05-05T15:12:45.768Z,101608.25
2023-05-05T15:15:48.816Z,101606.94
2023-05-05T15:18:51.421Z,101612.91
2023-05-05T15:21:55.432Z,101605.78
2023-05-05T15:24:58.015Z,101617.75
2023-05-05T15:28:00.859Z,101606.47
2023-05-05T15:31:03.506Z,101609.59
2023-05-05T15:34:06.016Z,101613.59
2023-05-05T15:37:09.972Z,101612.84
2023-05-05T15:40:13.017Z,101607.31
2023-05-05T15:43:15.595Z,101612.56
2023-05-05T15:46:18.158Z,101604.94
2023-05-05T15:49:20.675Z,101593.69
2023-05-05T15:52:24.554Z,101604.94
2023-05-05T15:55:27.290Z,101601.66
2023-05-05T15:58:29.837Z,101606.34
2023-05-05T16:01:33.400Z,101602.22
2023-05-05T16:04:36.004Z,101595.84
2023-05-05T16:07:39.872Z,101598.44
2023-05-05T16:10:42.411Z,101589.75
2023-05-05T16:13:45.070Z,101589.84
2023-05-05T16:16:47.679Z,101584.94
2023-05-05T16:19:50.370Z,101584.06
2023-05-05T16:22:54.284Z,101575.19
2023-05-05T16:25:56.998Z,101585.56
2023-05-05T16:28:59.572Z,101583.13
2023-05-05T16:32:02.149Z,101582.66
2023-05-05T16:35:07.089Z,101584.59
2023-05-05T16:38:11.446Z,101577.84
2023-05-05T16:41:14.021Z,101575.19
2023-05-05T16:44:16.690Z,101575.31
2023-05-05T16:47:19.201Z,101581.41
2023-05-05T16:50:21.764Z,101586.28
2023-05-05T16:53:25.664Z,101581.03
2023-05-05T16:56:28.199Z,101572.88
2023-05-05T16:59:31.726Z,101584.13
2023-05-05T17:02:35.214Z,101583.34
2023-05-05T17:05:37.798Z,101582.09
2023-05-05T17:08:41.756Z,101584.09
2023-05-05T17:11:44.264Z,101575.66
2023-05-05T17:14:46.925Z,101572.09
2023-05-05T17:17:49.559Z,101579.78
2023-05-05T17:20:52.227Z,101573.84
2023-05-05T17:23:56.104Z,101565.06
2023-05-05T17:26:59.488Z,101567.88
2023-05-05T17:30:02.000Z,101573.84
2023-05-05T17:33:04.604Z,101572.97
2023-05-05T17:36:07.968Z,101573.75
2023-05-05T17:39:12.226Z,101573.31
2023-05-05T17:42:16.500Z,101557.19
2023-05-05T17:45:19.259Z,101557.50
2023-05-05T17:48:21.845Z,101556.22
2023-05-05T17:51:24.577Z,101556.16
2023-05-05T17:54:28.485Z,101564.47
2023-05-05T17:57:31.111Z,101560.34
2023-05-05T18:00:33.682Z,101561.41
2023-05-05T18:03:37.277Z,101558.94
2023-05-05T18:06:41.783Z,101568.13
2023-05-05T18:09:45.692Z,101558.38
2023-05-05T18:12:48.320Z,101567.16
2023-05-05T18:15:50.898Z,101562.28
2023-05-05T18:18:53.438Z,101559.03
2023-05-05T18:21:55.957Z,101557.38
2023-05-05T18:24:59.796Z,101557.75
2023-05-05T18:28:02.379Z,101567.34
2023-05-05T18:31:05.026Z,101563.59
2023-05-05T18:34:07.629Z,101571.22
2023-05-05T18:37:10.180Z,101571.22
2023-05-05T18:40:14.712Z,101574.84
2023-05-05T18:43:17.305Z,101588.53
2023-05-05T18:46:19.990Z,101586.91
2023-05-05T18:49:23.168Z,101588.91
2023-05-05T18:52:27.275Z,101584.47
2023-05-05T18:55:31.131Z,101586.47
2023-05-05T18:58:33.836Z,101587.69
2023-05-05T19:01:36.381Z,101598.09
2023-05-05T19:04:39.444Z,101593.22
2023-05-05T19:07:41.978Z,101597.16
2023-05-05T19:10:46.277Z,101597.91
2023-05-05T19:13:48.942Z,101601.84
2023-05-05T19:16:51.482Z,101603.78
2023-05-05T19:19:53.985Z,101599.34
2023-05-05T19:22:58.115Z,101610.94
2023-05-05T19:26:03.426Z,101609.72
2023-05-05T19:29:05.981Z,101612.91
2023-05-05T19:32:08.657Z,101617.63
2023-05-05T19:35:11.753Z,101623.94
2023-05-05T19:38:14.610Z,101617.41
2023-05-05T19:41:18.723Z,101614.88
2023-05-05T19:44:22.440Z,101618.88
2023-05-05T19:47:25.010Z,101628.13
2023-05-05T19:50:27.688Z,101626.06
2023-05-05T19:53:30.232Z,101626.44
2023-05-05T19:56:34.135Z,101629.97
2023-05-05T19:59:36.669Z,101632.63
2023-05-05T20:02:39.341Z,101624.88
2023-05-05T20:05:41.945Z,101618.16
2023-05-05T20:08:44.479Z,101626.72
2023-05-05T20:11:48.438Z,101640.97
2023-05-05T20:14:50.974Z,101641.25
2023-05-05T20:17:53.676Z,101637.56
2023-05-05T20:20:56.226Z,101630.88
2023-05-05T20:23:59.620Z,101629.00
2023-05-05T20:27:05.179Z,101634.19
2023-05-05T20:30:09.532Z,101648.09
2023-05-05T20:33:12.402Z,101639.97
2023-05-05T20:36:14.988Z,101642.31
2023-05-05T20:39:17.562Z,101645.06
2023-05-05T20:42:22.917Z,101645.88
2023-05-05T20:45:25.439Z,101652.66
2023-05-05T20:48:28.054Z,101637.47
2023-05-05T20:51:34.076Z,101642.31
2023-05-05T20:54:36.877Z,101647.22
2023-05-05T20:57:40.764Z,101646.88
2023-05-05T21:00:43.393Z,101652.84
2023-05-05T21:03:46.063Z,101651.91
2023-05-05T21:06:48.595Z,101654.28
2023-05-05T21:09:51.101Z,101652.28
2023-05-05T21:12:55.016Z,101653.34
2023-05-05T21:15:57.598Z,101649.00
2023-05-05T21:19:00.419Z,101655.09
2023-05-05T21:22:03.005Z,101654.09
2023-05-05T21:25:12.260Z,101657.97
2023-05-05T21:28:16.305Z,101653.06
2023-05-05T21:31:22.153Z,101646.22
2023-05-05T21:34:25.042Z,101648.09
2023-05-05T21:37:27.645Z,101645.22
2023-05-05T21:40:30.324Z,101652.81
2023-05-05T21:43:34.198Z,101648.84
2023-05-05T21:46:36.744Z,101656.03
2023-05-05T21:49:39.420Z,101654.44
2023-05-05T21:52:41.980Z,101656.03
2023-05-05T21:55:44.601Z,101652.88
2023-05-05T21:58:48.517Z,101646.47
2023-05-05T22:01:51.177Z,101642.75
2023-05-05T22:04:53.810Z,101638.78
2023-05-05T22:07:56.380Z,101635.19
2023-05-05T22:10:58.975Z,101624.69
2023-05-05T22:14:02.904Z,101627.13
2023-05-05T22:17:05.470Z,101625.50
2023-05-05T22:20:09.684Z,101627.84
2023-05-05T22:23:13.961Z,101626.22
2023-05-05T22:26:16.575Z,101631.00
2023-05-05T22:29:20.467Z,101631.81
2023-05-05T22:32:23.040Z,101627.84
2023-05-05T22:35:25.641Z,101625.28
2023-05-05T22:38:28.215Z,101628.84
2023-05-05T22:41:30.711Z,101628.91
2023-05-05T22:44:34.609Z,101629.53
2023-05-05T22:47:37.311Z,101624.53
2023-05-05T22:50:39.854Z,101622.22
2023-05-05T22:53:42.372Z,101615.78
2023-05-05T22:56:44.896Z,101619.84
2023-05-05T22:59:48.760Z,101617.50
2023-05-05T23:02:51.471Z,101619.97
2023-05-05T23:05:54.235Z,101617.25
2023-05-05T23:08:56.806Z,101613.72
2023-05-05T23:11:59.295Z,101609.78
2023-05-05T23:15:03.234Z,101604.16
2023-05-05T23:18:05.791Z,101610.56
2023-05-05T23:21:08.398Z,101604.06
2023-05-05T23:24:10.912Z,101610.28
2023-05-05T23:27:13.460Z,101608.63
2023-05-05T23:30:17.566Z,101616.13
2023-05-05T23:33:20.226Z,101602.13
2023-05-05T23:36:22.786Z,101600.50
2023-05-05T23:39:25.290Z,101602.50
2023-05-05T23:42:27.812Z,101596.00
2023-05-05T23:45:31.717Z,101582.69
2023-05-05T23:48:34.235Z,101591.47
2023-05-05T23:51:36.768Z,101594.63
2023-05-05T23:54:39.267Z,101594.97
2023-05-05T23:57:41.780Z,101600.09
